Time;durP1;ratioP1;P1;durP2;ratioP2;P2;SDS_P1;SDS_P2;PMS_P1;PMS_P2;Temp;Humidity;BMP_temperature;BMP_pressure;BME280_temperature;BME280_humidity;BME280_pressure;Samples;Min_cycle;Max_cycle;Signal;HPM_P1;HPM_P2
2023/10/23 00:00:24;;;;;;;5.80;3.88;;;8.40;99.90;;;;;;7584130;19;20067;-73
2023/10/23 00:02:57;;;;;;;7.13;4.07;;;8.30;99.90;;;;;;7594370;19;20568;-72
2023/10/23 00:05:30;;;;;;;7.60;3.55;;;8.20;99.90;;;;;;7582177;19;20022;-73
2023/10/23 00:08:02;;;;;;;7.18;3.80;;;8.20;99.90;;;;;;7582372;19;20022;-70
2023/10/23 00:10:35;;;;;;;6.20;3.63;;;8.10;99.90;;;;;;7588723;19;20039;-72
2023/10/23 00:13:07;;;;;;;7.97;3.63;;;8.10;99.90;;;;;;7576779;19;21140;-73
2023/10/23 00:15:39;;;;;;;4.97;3.55;;;8.10;99.90;;;;;;7583832;19;20023;-72
2023/10/23 00:18:11;;;;;;;6.63;3.42;;;8.20;99.90;;;;;;7588613;19;20019;-73
2023/10/23 00:20:44;;;;;;;6.38;3.33;;;8.20;99.90;;;;;;7590903;19;20025;-72
2023/10/23 00:23:16;;;;;;;4.00;3.20;;;8.20;99.90;;;;;;7579381;19;20059;-72
2023/10/23 00:25:48;;;;;;;4.65;3.28;;;8.10;99.90;;;;;;7590564;19;20057;-73
2023/10/23 00:28:21;;;;;;;5.50;3.27;;;8.10;99.90;;;;;;7585830;19;20074;-69
2023/10/23 00:30:53;;;;;;;5.95;3.20;;;8.10;99.90;;;;;;7592138;19;20914;-72
2023/10/23 00:33:26;;;;;;;4.70;2.80;;;8.10;99.90;;;;;;7583842;19;20903;-72
2023/10/23 00:35:58;;;;;;;3.60;2.80;;;8.10;99.90;;;;;;7595050;19;20020;-70
2023/10/23 00:38:31;;;;;;;7.70;3.57;;;8.10;99.90;;;;;;7582175;19;20014;-70
2023/10/23 00:41:06;;;;;;;4.57;2.97;;;8.10;99.90;;;;;;7589536;19;20281;-70
2023/10/23 00:43:39;;;;;;;9.38;2.72;;;8.10;99.90;;;;;;7600865;19;20742;-72
2023/10/23 00:46:18;;;;;;;6.72;3.10;;;8.10;99.90;;;;;;7584962;19;20011;-69
2023/10/23 00:48:52;;;;;;;8.23;3.20;;;8.10;99.90;;;;;;7580676;19;20025;-72
2023/10/23 00:51:27;;;;;;;5.65;3.20;;;8.10;99.90;;;;;;7586854;19;20096;-71
2023/10/23 00:54:00;;;;;;;5.90;3.15;;;8.10;99.90;;;;;;7582298;19;20023;-72
2023/10/23 00:56:34;;;;;;;4.20;2.78;;;8.00;99.90;;;;;;7578401;19;20703;-72
2023/10/23 00:59:08;;;;;;;;;;;8.00;99.90;;;;;;7592058;19;20022;-71
2023/10/23 01:01:44;;;;;;;6.45;3.63;;;8.00;99.90;;;;;;7580244;19;21447;-71
2023/10/23 01:04:16;;;;;;;6.22;3.00;;;8.00;99.90;;;;;;7593192;19;20445;-71
2023/10/23 01:06:50;;;;;;;7.28;2.92;;;8.10;99.90;;;;;;7578982;19;20018;-72
2023/10/23 01:09:22;;;;;;;7.50;2.70;;;8.10;99.90;;;;;;7570673;19;20052;-72
2023/10/23 01:11:55;;;;;;;4.18;2.95;;;8.00;99.90;;;;;;7579063;19;20811;-71
2023/10/23 01:14:27;;;;;;;4.70;2.78;;;8.10;99.90;;;;;;7582093;19;22734;-71
2023/10/23 01:16:59;;;;;;;6.82;2.58;;;8.10;99.90;;;;;;7580928;19;20014;-71
2023/10/23 01:19:31;;;;;;;4.88;2.80;;;8.10;99.90;;;;;;7574545;19;20030;-71
2023/10/23 01:22:03;;;;;;;4.40;2.97;;;8.10;99.90;;;;;;7586255;19;20043;-71
2023/10/23 01:24:39;;;;;;;10.30;3.75;;;8.10;99.90;;;;;;7572999;19;20132;-71
2023/10/23 01:27:11;;;;;;;3.90;2.80;;;8.20;99.90;;;;;;7581659;19;20021;-71
2023/10/23 01:29:43;;;;;;;7.10;2.97;;;8.10;99.90;;;;;;7566103;19;21346;-71
2023/10/23 01:32:16;;;;;;;8.40;3.63;;;8.10;99.90;;;;;;7584202;19;20616;-71
2023/10/23 01:34:48;;;;;;;4.20;2.90;;;8.00;99.90;;;;;;7585892;19;20051;-71
2023/10/23 01:37:21;;;;;;;7.82;3.22;;;7.90;99.90;;;;;;7584577;19;20017;-71
2023/10/23 01:39:53;;;;;;;6.43;3.45;;;8.00;99.90;;;;;;7582466;19;20106;-71
2023/10/23 01:42:28;;;;;;;4.10;3.17;;;8.00;99.90;;;;;;7579802;19;20010;-71
2023/10/23 01:45:01;;;;;;;5.32;2.60;;;8.10;99.90;;;;;;7570027;19;20026;-71
2023/10/23 01:47:33;;;;;;;3.35;2.85;;;8.00;99.90;;;;;;7581070;19;20014;-71
2023/10/23 01:50:06;;;;;;;5.07;2.92;;;7.90;99.90;;;;;;7575084;19;21374;-71
2023/10/23 01:52:39;;;;;;;9.70;3.20;;;8.00;99.90;;;;;;7580220;19;20103;-71
2023/10/23 01:55:11;;;;;;;4.97;2.88;;;7.90;99.90;;;;;;7576862;19;20014;-71
2023/10/23 01:57:44;;;;;;;3.30;2.63;;;7.80;99.90;;;;;;7582586;19;20033;-71
2023/10/23 02:00:17;;;;;;;4.90;2.92;;;7.80;99.90;;;;;;7584841;19;20030;-70
2023/10/23 02:02:49;;;;;;;4.35;2.67;;;7.90;99.90;;;;;;7584525;19;20015;-71
2023/10/23 02:05:22;;;;;;;3.60;2.80;;;7.90;99.90;;;;;;7587712;19;20015;-72
2023/10/23 02:07:55;;;;;;;4.85;2.90;;;7.90;99.90;;;;;;7586217;19;20019;-70
2023/10/23 02:10:28;;;;;;;3.67;2.75;;;7.90;99.90;;;;;;7577708;19;21181;-72
2023/10/23 02:13:01;;;;;;;5.05;3.42;;;7.90;99.90;;;;;;7576434;19;20097;-70
2023/10/23 02:15:33;;;;;;;5.70;3.67;;;7.80;99.90;;;;;;7580453;19;20673;-73
2023/10/23 02:18:07;;;;;;;4.97;3.42;;;7.80;99.90;;;;;;7579881;19;20032;-72
2023/10/23 02:20:39;;;;;;;7.20;3.38;;;7.80;99.90;;;;;;7575575;19;20006;-72
2023/10/23 02:23:13;;;;;;;4.25;3.00;;;7.80;99.90;;;;;;7596850;19;20015;-72
2023/10/23 02:25:48;;;;;;;4.20;2.80;;;7.80;99.90;;;;;;7581632;19;20019;-72
2023/10/23 02:28:20;;;;;;;4.13;2.78;;;7.90;99.90;;;;;;7584283;19;20106;-72
2023/10/23 02:30:53;;;;;;;3.38;2.97;;;7.90;99.90;;;;;;7590136;19;20725;-72
2023/10/23 02:33:26;;;;;;;5.33;3.17;;;7.80;99.90;;;;;;7589465;19;20010;-72
2023/10/23 02:35:58;;;;;;;4.30;2.95;;;7.90;99.90;;;;;;7587553;19;20924;-71
2023/10/23 02:38:31;;;;;;;5.65;2.65;;;7.80;99.90;;;;;;7587449;19;20674;-71
2023/10/23 02:41:03;;;;;;;5.68;3.40;;;7.80;99.90;;;;;;7588458;19;20799;-71
2023/10/23 02:43:36;;;;;;;4.07;2.83;;;7.90;99.90;;;;;;7573806;19;20010;-71
2023/10/23 02:46:09;;;;;;;11.45;3.15;;;7.80;99.90;;;;;;7593998;19;20018;-71
2023/10/23 02:48:42;;;;;;;5.15;2.47;;;7.80;99.90;;;;;;7592040;19;20010;-70
2023/10/23 02:51:15;;;;;;;4.53;2.70;;;7.80;99.90;;;;;;7603773;19;20806;-72
2023/10/23 02:53:47;;;;;;;6.53;3.05;;;7.80;99.90;;;;;;7596418;19;20018;-70
2023/10/23 02:56:19;;;;;;;3.40;2.78;;;7.80;99.90;;;;;;7594817;19;20088;-71
2023/10/23 02:58:52;;;;;;;4.82;2.90;;;7.70;99.90;;;;;;7583436;19;20022;-71
2023/10/23 03:01:24;;;;;;;3.60;2.60;;;7.70;99.90;;;;;;7598860;19;20011;-71
2023/10/23 03:03:57;;;;;;;5.00;2.70;;;7.70;99.90;;;;;;7597939;19;20368;-71
2023/10/23 03:06:30;;;;;;;3.70;2.75;;;7.60;99.90;;;;;;7607311;19;20082;-71
2023/10/23 03:09:03;;;;;;;6.47;2.78;;;7.50;99.90;;;;;;7600066;19;20087;-71
2023/10/23 03:11:36;;;;;;;4.97;2.80;;;7.50;99.90;;;;;;7605677;19;20014;-71
2023/10/23 03:14:08;;;;;;;7.50;2.85;;;7.50;99.90;;;;;;7603420;19;21103;-72
2023/10/23 03:16:40;;;;;;;7.82;2.85;;;7.60;99.90;;;;;;7574743;19;20044;-71
2023/10/23 03:19:13;;;;;;;4.55;3.15;;;7.70;99.90;;;;;;7579151;19;20019;-71
2023/10/23 03:21:45;;;;;;;6.87;3.10;;;7.70;99.90;;;;;;7568611;19;20018;-71
2023/10/23 03:24:19;;;;;;;3.92;3.05;;;7.70;99.90;;;;;;7576571;19;20609;-71
2023/10/23 03:26:51;;;;;;;6.80;2.90;;;7.60;99.90;;;;;;7585459;19;20076;-72
2023/10/23 03:29:23;;;;;;;5.47;3.10;;;7.60;99.90;;;;;;7569657;19;21166;-72
2023/10/23 03:31:56;;;;;;;6.60;2.70;;;7.50;99.90;;;;;;7587619;19;20785;-72
2023/10/23 03:34:28;;;;;;;5.28;2.75;;;7.50;99.90;;;;;;7572320;19;21168;-72
2023/10/23 03:37:00;;;;;;;6.60;2.53;;;7.50;99.90;;;;;;7568479;19;20055;-72
2023/10/23 03:39:33;;;;;;;3.17;2.80;;;7.50;99.90;;;;;;7568845;19;20018;-72
2023/10/23 03:42:05;;;;;;;4.95;2.88;;;7.40;99.90;;;;;;7579763;19;20026;-72
2023/10/23 03:44:37;;;;;;;5.07;2.97;;;7.40;99.90;;;;;;7569955;19;20348;-72
2023/10/23 03:47:10;;;;;;;5.13;3.17;;;7.40;99.90;;;;;;7575509;19;20015;-72
2023/10/23 03:49:43;;;;;;;6.30;3.20;;;7.30;99.90;;;;;;7570784;19;20018;-72
2023/10/23 03:52:16;;;;;;;5.57;2.97;;;7.20;99.90;;;;;;7575305;19;20283;-72
2023/10/23 03:54:49;;;;;;;4.50;3.15;;;7.20;99.90;;;;;;7546823;19;20022;-72
2023/10/23 03:57:21;;;;;;;4.95;3.10;;;7.30;99.90;;;;;;7553864;19;20086;-72
2023/10/23 03:59:53;;;;;;;3.17;2.22;;;7.30;99.90;;;;;;7557053;19;20020;-72
2023/10/23 04:02:26;;;;;;;5.95;2.50;;;7.30;99.90;;;;;;7557432;19;20024;-72
2023/10/23 04:05:00;;;;;;;5.45;3.05;;;7.30;99.90;;;;;;7549313;19;20068;-72
2023/10/23 04:07:32;;;;;;;;;;;7.30;99.90;;;;;;7553512;19;20022;-72
2023/10/23 04:10:13;;;;;;;4.50;2.67;;;7.20;99.90;;;;;;7549070;19;19919;-72
2023/10/23 04:12:46;;;;;;;5.40;3.22;;;7.20;99.90;;;;;;7561413;19;20011;-74
2023/10/23 04:15:18;;;;;;;4.70;3.00;;;7.10;99.90;;;;;;7560940;19;20106;-71
2023/10/23 04:17:51;;;;;;;4.03;2.45;;;7.10;99.90;;;;;;7556322;19;20139;-70
2023/10/23 04:20:23;;;;;;;9.20;3.25;;;7.10;99.90;;;;;;7562270;19;20022;-72
2023/10/23 04:22:55;;;;;;;4.97;3.25;;;7.10;99.90;;;;;;7560170;19;20023;-72
2023/10/23 04:25:27;;;;;;;4.63;3.08;;;7.00;99.90;;;;;;7561269;19;20618;-72
2023/10/23 04:28:00;;;;;;;5.15;3.20;;;7.00;99.90;;;;;;7547571;19;20023;-72
2023/10/23 04:30:32;;;;;;;8.32;3.33;;;6.90;99.90;;;;;;7551487;19;20022;-72
2023/10/23 04:33:04;;;;;;;7.10;2.90;;;6.90;99.90;;;;;;7552729;19;20014;-72
2023/10/23 04:35:37;;;;;;;8.10;3.22;;;6.90;99.90;;;;;;7554611;19;20645;-72
2023/10/23 04:38:09;;;;;;;10.70;3.65;;;7.00;99.90;;;;;;7570427;19;20254;-72
2023/10/23 04:40:44;;;;;;;6.22;3.00;;;7.00;99.90;;;;;;7548166;19;20837;-72
2023/10/23 04:43:16;;;;;;;5.10;2.88;;;7.00;99.90;;;;;;7582089;19;20638;-72
2023/10/23 04:45:49;;;;;;;6.20;3.10;;;6.90;99.90;;;;;;7565856;19;20015;-72
2023/10/23 04:48:21;;;;;;;6.80;3.05;;;6.90;99.90;;;;;;7556215;19;20064;-71
2023/10/23 04:50:59;;;;;;;5.13;3.80;;;6.80;99.90;;;;;;7555589;19;20017;-73
2023/10/23 04:53:31;;;;;;;4.68;3.20;;;6.80;99.90;;;;;;7561560;19;20022;-73
2023/10/23 04:56:06;;;;;;;5.75;3.67;;;6.70;99.90;;;;;;7532972;19;20021;-73
2023/10/23 04:58:39;;;;;;;6.40;2.83;;;6.70;99.90;;;;;;7563929;19;20025;-74
2023/10/23 05:01:16;;;;;;;9.75;3.05;;;6.70;99.90;;;;;;7529471;19;20766;-73
2023/10/23 05:03:48;;;;;;;5.93;3.22;;;6.70;99.90;;;;;;7562566;19;20067;-74
2023/10/23 05:06:26;;;;;;;4.82;3.05;;;6.70;99.90;;;;;;7569786;19;20025;-74
2023/10/23 05:08:59;;;;;;;4.38;3.17;;;6.70;99.90;;;;;;7559991;19;20149;-73
2023/10/23 05:11:32;;;;;;;5.13;3.47;;;6.70;99.90;;;;;;7562106;19;20018;-73
2023/10/23 05:14:05;;;;;;;6.13;3.08;;;6.70;99.90;;;;;;7558953;19;20023;-76
2023/10/23 05:16:37;;;;;;;7.57;3.20;;;6.70;99.90;;;;;;7552658;19;21197;-73
2023/10/23 05:19:09;;;;;;;3.78;2.53;;;6.70;99.90;;;;;;7566715;19;20014;-75
2023/10/23 05:21:41;;;;;;;5.47;3.30;;;6.70;99.90;;;;;;7552798;19;20735;-75
2023/10/23 05:24:13;;;;;;;4.47;3.03;;;6.80;99.90;;;;;;7581668;19;20046;-75
2023/10/23 05:26:46;;;;;;;8.10;3.10;;;6.70;99.90;;;;;;7560745;19;20022;-74
2023/10/23 05:29:18;;;;;;;5.13;2.90;;;6.60;99.90;;;;;;7545327;19;20400;-75
2023/10/23 05:31:50;;;;;;;4.82;3.10;;;6.70;99.90;;;;;;7581630;19;20724;-75
2023/10/23 05:34:22;;;;;;;7.72;3.05;;;6.70;99.90;;;;;;7594145;19;20326;-75
2023/10/23 05:36:54;;;;;;;4.43;3.13;;;6.70;99.90;;;;;;7607413;19;20014;-75
2023/10/23 05:39:27;;;;;;;6.40;3.45;;;6.60;99.90;;;;;;7608826;19;20026;-75
2023/10/23 05:41:59;;;;;;;5.53;3.90;;;6.70;99.90;;;;;;7594239;19;20029;-75
2023/10/23 05:44:32;;;;;;;4.85;3.47;;;6.70;99.90;;;;;;7610831;19;20102;-75
2023/10/23 05:47:04;;;;;;;7.75;3.35;;;6.70;99.90;;;;;;7604505;19;20022;-75
2023/10/23 05:49:36;;;;;;;5.25;3.50;;;6.80;99.90;;;;;;7608282;19;20048;-75
2023/10/23 05:52:09;;;;;;;5.15;3.10;;;6.70;99.90;;;;;;7601834;19;20113;-75
2023/10/23 05:54:41;;;;;;;5.50;3.42;;;6.70;99.90;;;;;;7593712;19;20109;-75
2023/10/23 05:57:13;;;;;;;5.25;3.53;;;6.70;99.90;;;;;;7597659;19;20015;-75
2023/10/23 05:59:45;;;;;;;4.85;3.47;;;6.70;99.90;;;;;;7590039;19;20010;-75
2023/10/23 06:02:18;;;;;;;6.30;3.17;;;6.70;99.90;;;;;;7608640;19;20526;-75
2023/10/23 06:04:50;;;;;;;6.13;2.95;;;6.70;99.90;;;;;;7609200;19;20022;-75
2023/10/23 06:07:22;;;;;;;4.15;3.05;;;6.70;99.90;;;;;;7611990;19;20494;-75
2023/10/23 06:09:56;;;;;;;5.10;3.25;;;6.70;99.90;;;;;;7608086;19;20023;-75
2023/10/23 06:12:28;;;;;;;10.90;3.33;;;6.80;99.90;;;;;;7610973;19;20499;-75
2023/10/23 06:15:00;;;;;;;6.95;3.78;;;6.80;99.90;;;;;;7602128;19;22605;-75
2023/10/23 06:17:33;;;;;;;4.97;3.22;;;6.70;99.90;;;;;;7610846;19;20045;-75
2023/10/23 06:20:05;;;;;;;4.22;3.15;;;6.70;99.90;;;;;;7606567;19;20889;-75
2023/10/23 06:22:38;;;;;;;5.15;3.78;;;6.70;99.90;;;;;;7612082;19;20015;-74
2023/10/23 06:25:10;;;;;;;6.15;3.85;;;6.70;99.90;;;;;;7610147;19;20038;-75
2023/10/23 06:27:42;;;;;;;5.55;4.45;;;6.80;99.90;;;;;;7609803;19;20934;-75
2023/10/23 06:30:15;;;;;;;10.02;4.75;;;6.80;99.90;;;;;;7610970;19;20022;-74
2023/10/23 06:32:48;;;;;;;6.18;3.90;;;6.80;99.90;;;;;;7607985;19;20030;-75
2023/10/23 06:35:20;;;;;;;8.25;4.60;;;6.80;99.90;;;;;;7610889;19;20018;-74
2023/10/23 06:37:52;;;;;;;4.90;3.53;;;6.80;99.90;;;;;;7603384;19;20058;-74
2023/10/23 06:40:25;;;;;;;9.38;4.13;;;6.90;99.90;;;;;;7611461;19;20030;-75
2023/10/23 06:42:57;;;;;;;7.95;3.88;;;7.10;99.90;;;;;;7603794;19;20595;-75
2023/10/23 06:45:29;;;;;;;8.50;4.25;;;7.10;99.90;;;;;;7603604;19;20042;-73
2023/10/23 06:48:21;;;;;;;4.50;3.63;;;7.30;99.90;;;;;;7608595;19;20020;-75
2023/10/23 06:50:54;;;;;;;4.88;3.35;;;7.30;99.90;;;;;;7603536;19;20877;-75
2023/10/23 06:53:27;;;;;;;5.83;3.33;;;7.40;99.90;;;;;;7613708;19;20025;-73
2023/10/23 06:55:59;;;;;;;3.97;2.90;;;7.50;99.90;;;;;;7608135;19;21245;-73
2023/10/23 06:58:31;;;;;;;4.70;3.10;;;7.50;99.90;;;;;;7611206;19;20029;-74
2023/10/23 07:01:07;;;;;;;5.15;3.92;;;7.60;99.90;;;;;;7604972;19;20224;-75
2023/10/23 07:03:40;;;;;;;4.88;3.80;;;7.70;99.90;;;;;;7613210;19;20041;-75
2023/10/23 07:06:13;;;;;;;5.53;4.15;;;7.80;99.90;;;;;;7608467;19;20092;-73
2023/10/23 07:08:45;;;;;;;4.63;3.55;;;7.80;99.90;;;;;;7607888;19;20042;-75
2023/10/23 07:11:18;;;;;;;6.27;4.27;;;7.90;99.90;;;;;;7608254;19;20022;-75
2023/10/23 07:13:51;;;;;;;5.78;4.25;;;8.00;99.90;;;;;;7608003;19;20086;-75
2023/10/23 07:16:23;;;;;;;8.40;3.95;;;8.10;99.90;;;;;;7605689;19;20052;-75
2023/10/23 07:18:55;;;;;;;6.50;4.35;;;8.30;99.90;;;;;;7605203;19;21168;-73
2023/10/23 07:21:28;;;;;;;11.15;4.47;;;8.40;99.90;;;;;;7610184;19;20100;-75
2023/10/23 07:24:00;;;;;;;5.32;4.07;;;8.50;99.90;;;;;;7605156;19;20036;-75
2023/10/23 07:26:33;;;;;;;6.00;4.20;;;8.60;99.90;;;;;;7609973;19;20093;-75
2023/10/23 07:29:05;;;;;;;7.07;4.05;;;8.70;99.90;;;;;;7605235;19;20026;-75
2023/10/23 07:31:37;;;;;;;7.78;3.53;;;8.90;99.90;;;;;;7608378;19;20018;-75
2023/10/23 07:34:09;;;;;;;5.15;3.58;;;9.10;99.90;;;;;;7604752;19;20557;-75
2023/10/23 07:36:41;;;;;;;4.43;3.63;;;9.30;99.90;;;;;;7608833;19;20022;-75
2023/10/23 07:39:14;;;;;;;7.72;3.42;;;9.40;99.90;;;;;;7588795;19;20019;-75
2023/10/23 07:41:46;;;;;;;6.93;3.90;;;9.50;99.90;;;;;;7602733;19;20030;-75
2023/10/23 07:44:20;;;;;;;5.80;3.45;;;9.50;99.90;;;;;;7603797;19;20022;-74
2023/10/23 07:46:52;;;;;;;5.43;3.75;;;9.60;99.90;;;;;;7615362;19;20018;-75
2023/10/23 07:49:25;;;;;;;4.65;3.35;;;9.70;99.90;;;;;;7610692;19;20023;-75
2023/10/23 07:51:57;;;;;;;6.32;3.55;;;9.80;99.90;;;;;;7613718;19;20495;-74
2023/10/23 07:54:31;;;;;;;7.72;3.83;;;9.80;99.90;;;;;;7618972;19;20102;-74
2023/10/23 07:57:03;;;;;;;6.13;3.95;;;9.90;99.90;;;;;;7612039;19;20018;-75
2023/10/23 07:59:35;;;;;;;4.75;4.05;;;9.90;99.90;;;;;;7615462;19;20054;-75
2023/10/23 08:02:08;;;;;;;6.55;3.67;;;10.00;99.90;;;;;;7611692;19;20017;-74
2023/10/23 08:04:41;;;;;;;4.85;3.90;;;10.10;99.90;;;;;;7617094;19;20811;-75
2023/10/23 08:07:13;;;;;;;5.25;3.17;;;10.20;99.90;;;;;;7611296;19;20015;-75
2023/10/23 08:09:46;;;;;;;6.33;3.23;;;10.40;99.90;;;;;;7611819;19;21133;-75
2023/10/23 08:12:18;;;;;;;5.68;3.53;;;10.30;99.90;;;;;;7613723;19;20050;-75
2023/10/23 08:14:51;;;;;;;4.75;3.00;;;10.40;99.90;;;;;;7610861;19;20052;-75
2023/10/23 08:17:23;;;;;;;8.82;3.65;;;10.50;99.90;;;;;;7614047;19;20333;-75
2023/10/23 08:20:01;;;;;;;4.70;3.00;;;10.70;99.90;;;;;;7611677;19;20010;-75
2023/10/23 08:22:35;;;;;;;3.78;3.00;;;10.80;99.90;;;;;;7617057;19;20375;-74
2023/10/23 08:25:08;;;;;;;6.03;2.60;;;11.00;99.90;;;;;;7611666;19;20025;-74
2023/10/23 08:27:40;;;;;;;5.18;2.17;;;11.20;99.90;;;;;;7618116;19;20014;-74
2023/10/23 08:30:13;;;;;;;2.85;2.30;;;11.30;99.90;;;;;;7613269;19;20878;-74
2023/10/23 08:32:45;;;;;;;3.40;2.27;;;11.30;99.90;;;;;;7614103;19;20734;-74
2023/10/23 08:35:27;;;;;;;4.97;2.80;;;11.30;99.90;;;;;;7574682;19;20824;-74
2023/10/23 08:37:59;;;;;;;3.47;2.58;;;11.30;99.90;;;;;;7596173;19;20018;-74
2023/10/23 08:40:32;;;;;;;5.07;2.50;;;11.30;99.90;;;;;;7601856;19;20015;-74
2023/10/23 08:43:05;;;;;;;4.40;2.50;;;11.30;99.90;;;;;;7608836;19;20111;-74
2023/10/23 08:45:42;;;;;;;3.05;2.45;;;11.40;99.90;;;;;;7591140;19;20026;-74
2023/10/23 08:48:14;;;;;;;8.45;2.50;;;11.50;99.90;;;;;;7607851;19;20015;-74
2023/10/23 08:50:46;;;;;;;5.95;2.60;;;11.50;99.90;;;;;;7590895;19;20019;-74
2023/10/23 08:53:23;;;;;;;4.93;1.92;;;11.50;99.90;;;;;;7587841;19;20503;-74
2023/10/23 08:55:55;;;;;;;3.67;2.50;;;11.60;99.90;;;;;;7598513;19;20022;-74
2023/10/23 08:58:30;;;;;;;3.10;2.33;;;11.70;99.90;;;;;;7592398;19;20018;-74
2023/10/23 09:01:03;;;;;;;5.13;2.33;;;11.80;99.90;;;;;;7596000;19;20040;-74
2023/10/23 09:03:36;;;;;;;2.13;1.93;;;11.90;99.90;;;;;;7596376;19;20041;-74
2023/10/23 09:06:28;;;;;;;3.67;1.83;;;12.00;99.90;;;;;;7596715;19;20622;-74
2023/10/23 09:09:01;;;;;;;5.38;3.00;;;12.00;99.90;;;;;;7592454;19;20023;-73
2023/10/23 09:11:44;;;;;;;5.75;2.70;;;12.00;99.90;;;;;;7586180;19;20022;-71
2023/10/23 09:14:28;;;;;;;4.10;2.35;;;12.10;99.90;;;;;;7595735;19;20048;-74
2023/10/23 09:17:00;;;;;;;6.45;2.45;;;12.20;99.90;;;;;;7575703;19;20025;-74
2023/10/23 09:19:36;;;;;;;4.60;2.25;;;12.20;99.90;;;;;;7589548;19;20022;-74
2023/10/23 09:22:11;;;;;;;2.85;2.20;;;12.30;99.90;;;;;;7601447;19;20022;-75
2023/10/23 09:24:45;;;;;;;4.22;2.35;;;12.30;99.90;;;;;;7589732;19;20022;-74
2023/10/23 09:27:22;;;;;;;4.75;2.28;;;12.40;99.90;;;;;;7599166;19;20026;-74
2023/10/23 09:29:59;;;;;;;4.68;2.13;;;12.50;99.90;;;;;;7589285;19;20011;-74
2023/10/23 09:32:33;;;;;;;3.92;1.80;;;12.60;99.90;;;;;;7608107;19;20024;-75
2023/10/23 09:35:06;;;;;;;2.45;1.63;;;12.70;99.90;;;;;;7607623;19;20018;-74
2023/10/23 09:37:39;;;;;;;2.38;1.63;;;12.90;99.90;;;;;;7608427;19;20014;-74
2023/10/23 09:40:11;;;;;;;2.80;1.55;;;12.90;99.90;;;;;;7602739;19;20018;-74
2023/10/23 09:42:44;;;;;;;2.43;1.50;;;13.00;99.90;;;;;;7608011;19;20661;-74
2023/10/23 09:45:18;;;;;;;4.27;1.60;;;13.10;99.90;;;;;;7608228;19;20018;-74
2023/10/23 09:47:52;;;;;;;;;;;13.10;99.90;;;;;;7614456;19;20487;-74
2023/10/23 09:50:26;;;;;;;;;;;13.10;99.90;;;;;;7608341;19;19926;-75
2023/10/23 09:53:00;;;;;;;3.35;1.70;;;13.20;99.90;;;;;;7596768;19;19929;-75
2023/10/23 09:55:35;;;;;;;2.17;1.52;;;13.40;99.90;;;;;;7598528;19;20014;-75
2023/10/23 09:58:14;;;;;;;2.03;1.57;;;13.50;99.90;;;;;;6570042;19;9999938;-75
2023/10/23 10:00:48;;;;;;;6.35;1.52;;;13.60;99.90;;;;;;7600958;19;20042;-75
2023/10/23 10:03:22;;;;;;;6.05;1.60;;;13.70;99.90;;;;;;7608560;19;20018;-74
2023/10/23 10:06:09;;;;;;;5.07;1.27;;;13.70;99.90;;;;;;7608645;19;20022;-74
2023/10/23 10:08:47;;;;;;;2.90;1.73;;;13.70;99.90;;;;;;7603437;19;20007;-75
2023/10/23 10:11:21;;;;;;;3.45;1.30;;;13.80;99.90;;;;;;7591091;19;20014;-74
2023/10/23 10:13:55;;;;;;;1.48;1.10;;;13.90;99.90;;;;;;7603577;19;20525;-74
2023/10/23 10:16:27;;;;;;;3.87;1.77;;;14.00;99.90;;;;;;7581481;19;20019;-74
2023/10/23 10:19:04;;;;;;;2.97;1.35;;;14.00;99.90;;;;;;7600340;19;20299;-75
2023/10/23 10:21:55;;;;;;;3.10;1.60;;;14.10;99.90;;;;;;7607355;19;20476;-74
2023/10/23 10:24:28;;;;;;;3.97;1.45;;;14.20;99.90;;;;;;7603108;19;20022;-75
2023/10/23 10:27:06;;;;;;;4.35;1.38;;;14.20;99.90;;;;;;7590791;19;20408;-74
2023/10/23 10:29:38;;;;;;;3.67;1.48;;;14.20;99.90;;;;;;7572240;19;21825;-75
2023/10/23 10:32:11;;;;;;;4.03;1.65;;;14.30;99.90;;;;;;7575601;19;20785;-74
2023/10/23 10:34:45;;;;;;;2.47;1.40;;;14.30;99.90;;;;;;7588586;19;20037;-74
2023/10/23 10:37:17;;;;;;;3.53;1.67;;;14.50;99.90;;;;;;7592837;19;20537;-74
2023/10/23 10:39:58;;;;;;;3.47;1.38;;;14.40;99.90;;;;;;7608309;19;21216;-74
2023/10/23 10:42:34;;;;;;;4.88;2.08;;;14.50;99.90;;;;;;7608508;19;20025;-74
2023/10/23 10:45:07;;;;;;;4.20;1.98;;;14.50;99.90;;;;;;7606091;19;20050;-74
2023/10/23 10:47:43;;;;;;;3.53;1.73;;;14.40;99.90;;;;;;7606751;19;20015;-74
2023/10/23 10:50:36;;;;;;;2.42;1.85;;;14.50;99.90;;;;;;7609513;19;20056;-74
2023/10/23 10:53:13;;;;;;;3.05;1.67;;;14.50;99.90;;;;;;7604813;19;20093;-74
2023/10/23 10:55:46;;;;;;;5.40;1.67;;;14.60;99.90;;;;;;7610489;19;20015;-74
2023/10/23 10:58:19;;;;;;;3.67;1.50;;;14.60;99.90;;;;;;7611487;19;20807;-74
2023/10/23 11:00:51;;;;;;;2.40;1.60;;;14.60;99.90;;;;;;7594280;19;20022;-74
2023/10/23 11:03:26;;;;;;;4.07;1.60;;;14.70;99.90;;;;;;7608855;19;20350;-74
2023/10/23 11:05:58;;;;;;;2.00;1.50;;;14.70;99.90;;;;;;7606428;19;20015;-73
2023/10/23 11:08:31;;;;;;;2.05;1.58;;;14.80;99.90;;;;;;7609994;19;20108;-74
2023/10/23 11:11:06;;;;;;;2.50;1.35;;;14.90;99.90;;;;;;7607742;19;20543;-74
2023/10/23 11:13:40;;;;;;;1.60;1.33;;;14.90;99.90;;;;;;7610590;19;20022;-74
2023/10/23 11:16:12;;;;;;;2.47;1.80;;;15.00;99.90;;;;;;7599489;19;20089;-74
2023/10/23 11:18:44;;;;;;;4.68;1.58;;;15.10;99.90;;;;;;7607089;19;20677;-74
2023/10/23 11:21:22;;;;;;;3.78;1.58;;;15.10;99.90;;;;;;7605484;19;20026;-74
2023/10/23 11:23:58;;;;;;;4.55;1.55;;;15.10;99.90;;;;;;7604717;19;20022;-74
2023/10/23 11:26:30;;;;;;;6.57;1.77;;;15.20;99.90;;;;;;7608967;19;20011;-74
2023/10/23 11:29:03;;;;;;;2.78;1.85;;;15.30;99.90;;;;;;7594476;19;20019;-74
2023/10/23 11:31:39;;;;;;;2.83;1.70;;;15.40;99.90;;;;;;7610482;19;20702;-74
2023/10/23 11:34:12;;;;;;;2.65;1.92;;;15.40;99.90;;;;;;7606384;19;20018;-74
2023/10/23 11:36:49;;;;;;;2.53;1.60;;;15.30;99.90;;;;;;7604149;19;20018;-75
2023/10/23 11:39:21;;;;;;;2.88;1.50;;;15.20;99.90;;;;;;7608047;19;20054;-74
2023/10/23 11:41:56;;;;;;;5.85;1.60;;;15.30;99.90;;;;;;7601355;19;20035;-74
2023/10/23 11:44:30;;;;;;;3.38;1.88;;;15.30;99.90;;;;;;7578727;19;20029;-74
2023/10/23 11:47:07;;;;;;;3.88;1.20;;;15.30;99.90;;;;;;7562701;19;20070;-74
2023/10/23 11:49:48;;;;;;;2.25;1.60;;;15.40;99.90;;;;;;7559714;19;21019;-74
2023/10/23 11:52:21;;;;;;;3.40;1.50;;;15.40;99.90;;;;;;7572548;19;20022;-75
2023/10/23 11:54:53;;;;;;;4.28;1.52;;;15.50;99.90;;;;;;7561241;19;20028;-74
2023/10/23 11:57:25;;;;;;;2.85;1.33;;;15.40;99.90;;;;;;7558616;19;21057;-74
2023/10/23 11:59:57;;;;;;;2.22;1.60;;;15.40;99.90;;;;;;7569338;19;20074;-74
2023/10/23 12:02:30;;;;;;;2.65;1.45;;;15.40;99.90;;;;;;7551616;19;20015;-74
2023/10/23 12:05:03;;;;;;;3.20;1.97;;;15.40;99.90;;;;;;7562648;19;20097;-75
2023/10/23 12:07:36;;;;;;;3.03;1.80;;;15.50;99.90;;;;;;7565698;19;20011;-74
2023/10/23 12:10:10;;;;;;;2.35;1.77;;;15.50;99.90;;;;;;7582841;19;21134;-74
2023/10/23 12:12:43;;;;;;;;;;;15.60;99.90;;;;;;7579387;19;20011;-73
2023/10/23 12:15:15;;;;;;;2.47;1.63;;;15.80;99.90;;;;;;7564492;19;20312;-74
2023/10/23 12:17:48;;;;;;;5.55;1.88;;;15.80;99.90;;;;;;7569033;19;20007;-74
2023/10/23 12:20:23;;;;;;;8.10;1.88;;;15.80;99.90;;;;;;7566785;19;20014;-75
2023/10/23 12:22:55;;;;;;;4.47;1.92;;;15.60;99.90;;;;;;7571971;19;20015;-74
2023/10/23 12:25:28;;;;;;;2.95;1.83;;;15.60;99.90;;;;;;7574057;19;20014;-74
2023/10/23 12:28:00;;;;;;;4.00;2.30;;;15.50;99.90;;;;;;7567472;19;20010;-74
2023/10/23 12:30:32;;;;;;;3.45;2.00;;;15.30;99.90;;;;;;6543504;19;10000384;-74
2023/10/23 12:33:05;;;;;;;3.00;1.85;;;15.30;99.90;;;;;;7574878;19;20022;-74
2023/10/23 12:35:53;;;;;;;2.90;1.92;;;15.30;99.90;;;;;;7576012;19;20023;-74
2023/10/23 12:38:26;;;;;;;3.10;1.92;;;15.30;99.90;;;;;;7572990;19;20014;-74
2023/10/23 12:40:58;;;;;;;2.92;2.15;;;15.20;99.90;;;;;;7593839;19;20056;-73
2023/10/23 12:43:31;;;;;;;3.20;1.90;;;15.30;99.90;;;;;;7582123;19;20066;-73
2023/10/23 12:46:03;;;;;;;3.42;1.77;;;15.40;99.90;;;;;;7586114;19;20013;-74
2023/10/23 12:48:38;;;;;;;5.45;1.90;;;15.40;99.90;;;;;;7580217;19;20380;-74
2023/10/23 12:51:10;;;;;;;5.35;2.30;;;15.50;99.90;;;;;;7586660;19;20072;-74
2023/10/23 12:53:43;;;;;;;5.45;1.85;;;15.60;99.90;;;;;;7579000;19;20054;-73
2023/10/23 12:56:15;;;;;;;5.75;1.90;;;15.80;99.90;;;;;;7583946;19;20356;-73
2023/10/23 12:58:47;;;;;;;4.68;1.90;;;15.80;99.90;;;;;;7584238;19;20017;-74
2023/10/23 13:01:20;;;;;;;2.85;2.38;;;15.90;99.90;;;;;;7568572;19;20101;-75
2023/10/23 13:03:52;;;;;;;4.78;2.30;;;15.90;99.90;;;;;;7560407;19;20034;-75
2023/10/23 13:06:24;;;;;;;4.00;1.95;;;16.00;99.90;;;;;;7573260;19;20031;-74
2023/10/23 13:08:57;;;;;;;4.90;1.80;;;16.20;99.90;;;;;;7576439;19;20022;-73
2023/10/23 13:11:30;;;;;;;4.80;2.30;;;16.40;99.90;;;;;;7563051;19;20084;-74
2023/10/23 13:14:02;;;;;;;3.22;1.75;;;16.50;99.90;;;;;;7555834;19;20865;-74
2023/10/23 13:16:35;;;;;;;3.97;1.70;;;16.50;99.90;;;;;;7559123;19;20259;-73
2023/10/23 13:19:07;;;;;;;5.88;2.08;;;16.50;99.90;;;;;;7579236;19;20028;-76
2023/10/23 13:21:40;;;;;;;5.38;1.73;;;16.40;99.90;;;;;;7571949;19;20569;-75
2023/10/23 13:24:12;;;;;;;4.00;1.90;;;16.70;99.90;;;;;;7561051;19;21255;-77